createdAt,value
2022-10-16T00:01:43.211Z,27.00
2022-10-16T00:04:11.415Z,26.90
2022-10-16T00:06:39.138Z,27.00
2022-10-16T00:09:07.872Z,26.90
2022-10-16T00:11:38.697Z,26.90
2022-10-16T00:14:12.205Z,26.80
2022-10-16T00:16:40.040Z,26.80
2022-10-16T00:19:08.031Z,26.80
2022-10-16T00:21:36.157Z,26.80
2022-10-16T00:24:09.863Z,26.80
2022-10-16T00:26:39.218Z,26.80
2022-10-16T00:29:07.599Z,26.70
2022-10-16T00:31:35.597Z,26.70
2022-10-16T00:34:03.064Z,26.70
2022-10-16T00:36:31.791Z,26.70
2022-10-16T00:39:02.640Z,26.70
2022-10-16T00:41:31.288Z,26.70
2022-10-16T00:44:01.852Z,26.70
2022-10-16T00:46:33.051Z,26.70
2022-10-16T00:49:06.039Z,26.60
2022-10-16T00:51:45.146Z,26.70
2022-10-16T00:54:18.433Z,26.60
2022-10-16T00:56:47.564Z,26.60
2022-10-16T00:59:33.055Z,26.60
2022-10-16T01:02:03.977Z,26.60
2022-10-16T01:04:38.729Z,26.60
2022-10-16T01:07:33.617Z,26.60
2022-10-16T01:10:36.696Z,26.60
2022-10-16T01:13:20.119Z,26.60
2022-10-16T01:16:08.361Z,26.60
2022-10-16T01:18:54.451Z,26.50
2022-10-16T01:21:32.383Z,26.50
2022-10-16T01:24:19.977Z,26.50
2022-10-16T01:27:28.638Z,26.50
2022-10-16T01:30:00.193Z,26.50
2022-10-16T01:32:42.586Z,26.50
2022-10-16T01:35:22.490Z,26.50
2022-10-16T01:38:27.768Z,26.50
2022-10-16T01:41:02.669Z,26.40
2022-10-16T01:43:39.564Z,26.40
2022-10-16T01:46:08.463Z,26.40
2022-10-16T01:48:37.196Z,26.40
2022-10-16T01:51:15.143Z,26.40
2022-10-16T01:53:47.678Z,26.40
2022-10-16T01:56:16.883Z,26.40
2022-10-16T01:58:52.595Z,26.40
2022-10-16T02:01:23.666Z,26.40
2022-10-16T02:03:55.805Z,26.40
2022-10-16T02:06:23.904Z,26.30
2022-10-16T02:08:51.361Z,26.30
2022-10-16T02:11:18.695Z,26.30
2022-10-16T02:13:50.160Z,26.30
2022-10-16T02:16:17.737Z,26.30
2022-10-16T02:18:45.604Z,26.30
2022-10-16T02:21:26.326Z,26.30
2022-10-16T02:24:16.611Z,26.30
2022-10-16T02:27:09.547Z,26.30
2022-10-16T02:29:49.380Z,26.30
2022-10-16T02:32:22.998Z,26.30
2022-10-16T02:34:52.302Z,26.30
2022-10-16T02:37:20.408Z,26.20
2022-10-16T02:39:47.923Z,26.20
2022-10-16T02:42:16.390Z,26.20
2022-10-16T02:44:43.742Z,26.20
2022-10-16T02:49:43.621Z,26.20
2022-10-16T02:52:11.156Z,26.10
2022-10-16T02:54:38.512Z,26.20
2022-10-16T02:57:06.282Z,26.10
2022-10-16T02:59:34.125Z,26.10
2022-10-16T03:02:01.718Z,26.10
2022-10-16T03:04:29.243Z,26.10
2022-10-16T03:06:56.839Z,26.10
2022-10-16T03:09:24.235Z,26.00
2022-10-16T03:11:51.514Z,26.00
2022-10-16T03:14:19.148Z,26.00
2022-10-16T03:16:46.615Z,26.00
2022-10-16T03:19:14.334Z,26.00
2022-10-16T03:21:41.787Z,25.90
2022-10-16T03:24:09.369Z,25.90
2022-10-16T03:26:37.200Z,25.90
2022-10-16T03:29:05.421Z,25.90
2022-10-16T03:31:33.172Z,25.90
2022-10-16T03:34:00.507Z,25.90
2022-10-16T03:36:27.962Z,25.90
2022-10-16T03:38:55.576Z,25.80
2022-10-16T03:41:23.168Z,25.80
2022-10-16T03:43:50.810Z,25.80
2022-10-16T03:46:18.251Z,25.80
2022-10-16T03:48:45.774Z,25.80
2022-10-16T03:51:15.864Z,25.70
2022-10-16T03:53:44.262Z,25.70
2022-10-16T03:56:11.769Z,25.70
2022-10-16T03:58:39.058Z,25.70
2022-10-16T04:01:06.479Z,25.70
2022-10-16T04:03:34.200Z,25.70
2022-10-16T04:06:01.608Z,25.70
2022-10-16T04:08:28.879Z,25.70
2022-10-16T04:10:56.155Z,25.60
2022-10-16T04:13:23.718Z,25.70
2022-10-16T04:15:51.016Z,25.60
2022-10-16T04:18:18.406Z,25.60
2022-10-16T04:20:45.809Z,25.60
2022-10-16T04:23:13.349Z,25.60
2022-10-16T04:25:41.133Z,25.60
2022-10-16T04:28:09.026Z,25.60
2022-10-16T04:30:40.127Z,25.60
2022-10-16T04:33:09.310Z,25.60
2022-10-16T04:35:36.711Z,25.50
2022-10-16T04:38:04.325Z,25.50
2022-10-16T04:40:37.576Z,25.50
2022-10-16T04:43:05.892Z,25.50
2022-10-16T04:45:33.442Z,25.50
2022-10-16T04:48:01.533Z,25.50
2022-10-16T04:50:28.924Z,25.50
2022-10-16T04:53:07.606Z,25.40
2022-10-16T04:55:35.445Z,25.40
2022-10-16T04:58:03.213Z,25.40
2022-10-16T05:00:30.894Z,25.40
2022-10-16T05:03:00.869Z,25.40
2022-10-16T05:05:29.409Z,25.40
2022-10-16T05:07:56.783Z,25.40
2022-10-16T05:10:24.127Z,25.40
2022-10-16T05:12:52.433Z,25.40
2022-10-16T05:15:20.106Z,25.40
2022-10-16T05:17:47.608Z,25.40
2022-10-16T05:20:15.184Z,25.40
2022-10-16T05:22:42.530Z,25.30
2022-10-16T05:25:10.036Z,25.40
2022-10-16T05:27:37.556Z,25.30
2022-10-16T05:30:08.561Z,25.40
2022-10-16T05:32:37.488Z,25.30
2022-10-16T05:35:07.541Z,25.30
2022-10-16T05:37:37.553Z,25.30
2022-10-16T05:40:06.195Z,25.30
2022-10-16T05:42:33.695Z,25.30
2022-10-16T05:45:01.790Z,25.30
2022-10-16T05:47:29.328Z,25.30
2022-10-16T05:49:57.061Z,25.20
2022-10-16T05:52:24.501Z,25.30
2022-10-16T05:54:52.044Z,25.20
2022-10-16T05:57:19.281Z,25.20
2022-10-16T05:59:46.967Z,25.20
2022-10-16T06:02:17.482Z,25.20
2022-10-16T06:04:44.936Z,25.20
2022-10-16T06:07:12.522Z,25.20
2022-10-16T06:09:40.073Z,25.20
2022-10-16T06:12:07.613Z,25.20
2022-10-16T06:14:35.338Z,25.20
2022-10-16T06:17:03.167Z,25.20
2022-10-16T06:19:30.749Z,25.20
2022-10-16T06:21:59.344Z,25.20
2022-10-16T06:24:27.067Z,25.20
2022-10-16T06:26:54.628Z,25.20
2022-10-16T06:29:22.241Z,25.10
2022-10-16T06:31:49.749Z,25.10
2022-10-16T06:34:17.262Z,25.10
2022-10-16T06:36:44.786Z,25.10
2022-10-16T06:39:12.357Z,25.10
2022-10-16T06:41:39.768Z,25.10
2022-10-16T06:44:16.509Z,25.10
2022-10-16T06:46:43.797Z,25.10
2022-10-16T06:49:11.497Z,25.10
2022-10-16T06:51:43.386Z,25.10
2022-10-16T06:54:11.438Z,25.10
2022-10-16T06:56:38.991Z,25.10
2022-10-16T06:59:06.740Z,25.10
2022-10-16T07:01:34.798Z,25.10
2022-10-16T07:04:03.602Z,25.10
2022-10-16T07:06:35.080Z,25.10
2022-10-16T07:09:06.573Z,25.10
2022-10-16T07:11:35.338Z,25.10
2022-10-16T07:14:02.738Z,25.10
2022-10-16T07:16:33.035Z,25.10
2022-10-16T07:19:03.490Z,25.00
2022-10-16T07:21:39.059Z,25.00
2022-10-16T07:24:12.354Z,25.00
2022-10-16T07:26:40.907Z,25.00
2022-10-16T07:29:18.302Z,25.00
2022-10-16T07:31:46.481Z,25.00
2022-10-16T07:34:15.723Z,25.00
2022-10-16T07:39:15.579Z,25.00
2022-10-16T07:41:43.028Z,25.00
2022-10-16T07:44:10.378Z,25.00
2022-10-16T07:46:38.133Z,25.00
2022-10-16T07:49:05.649Z,25.00
2022-10-16T07:51:33.720Z,25.00
2022-10-16T07:54:01.171Z,25.00
2022-10-16T07:56:28.705Z,25.00
2022-10-16T07:58:57.411Z,25.00
2022-10-16T08:01:26.146Z,25.00
2022-10-16T08:03:54.492Z,25.00
2022-10-16T08:06:26.842Z,25.00
2022-10-16T08:09:01.076Z,25.00
2022-10-16T08:11:28.466Z,25.00
2022-10-16T08:13:55.805Z,25.00
2022-10-16T08:16:23.603Z,25.00
2022-10-16T08:18:52.637Z,25.00
2022-10-16T08:21:24.474Z,25.00
2022-10-16T08:23:57.313Z,25.00
2022-10-16T08:26:27.916Z,25.00
2022-10-16T08:28:56.922Z,25.00
2022-10-16T08:31:24.755Z,25.00
2022-10-16T08:33:53.537Z,25.00
2022-10-16T08:36:21.492Z,25.00
2022-10-16T08:38:51.623Z,25.00
2022-10-16T08:41:58.816Z,25.00
2022-10-16T08:44:54.876Z,25.00
2022-10-16T08:47:45.351Z,25.00
2022-10-16T08:50:23.510Z,25.00
2022-10-16T08:52:51.221Z,25.00
2022-10-16T08:55:39.975Z,25.00
2022-10-16T08:58:16.889Z,25.00
2022-10-16T09:00:48.948Z,25.00
2022-10-16T09:03:31.843Z,25.00
2022-10-16T09:06:46.777Z,25.00
2022-10-16T09:09:35.518Z,25.00
2022-10-16T09:12:21.403Z,25.00
2022-10-16T09:15:14.189Z,25.00
2022-10-16T09:18:06.251Z,25.00
2022-10-16T09:20:55.162Z,25.00
2022-10-16T09:23:32.121Z,25.00
2022-10-16T09:26:00.976Z,25.00
2022-10-16T09:28:28.643Z,25.00
2022-10-16T09:30:56.071Z,25.00
2022-10-16T09:33:34.622Z,25.00
2022-10-16T09:36:05.363Z,25.00
2022-10-16T09:38:36.994Z,25.00
2022-10-16T09:41:26.341Z,25.00
2022-10-16T09:43:59.149Z,25.00
2022-10-16T09:46:35.970Z,25.00
2022-10-16T09:49:07.361Z,25.00
2022-10-16T09:51:38.191Z,25.00
2022-10-16T09:54:11.266Z,25.00
2022-10-16T09:56:42.998Z,25.00
2022-10-16T09:59:15.179Z,25.00
2022-10-16T10:01:46.783Z,25.00
2022-10-16T10:04:14.486Z,25.00
2022-10-16T10:06:56.633Z,25.00
2022-10-16T10:09:29.349Z,25.00
2022-10-16T10:12:05.883Z,25.00
2022-10-16T10:14:55.030Z,25.00
2022-10-16T10:17:25.793Z,25.00
2022-10-16T10:20:28.618Z,25.00
2022-10-16T10:22:57.623Z,25.00
2022-10-16T10:25:43.741Z,25.00
2022-10-16T10:28:21.415Z,25.00
2022-10-16T10:31:18.534Z,25.00
2022-10-16T10:34:32.660Z,25.00
2022-10-16T10:37:42.857Z,25.00
2022-10-16T10:40:29.988Z,25.10
2022-10-16T10:43:50.804Z,25.10
2022-10-16T10:46:46.620Z,25.10
2022-10-16T10:49:42.467Z,25.10
2022-10-16T10:53:24.472Z,25.10
2022-10-16T10:56:40.742Z,25.10
2022-10-16T10:59:10.556Z,25.10
2022-10-16T11:01:49.708Z,25.20
2022-10-16T11:04:47.275Z,25.10
2022-10-16T11:07:25.178Z,25.10
2022-10-16T11:10:09.693Z,25.10
2022-10-16T11:12:47.963Z,25.20
2022-10-16T11:15:26.714Z,25.20
2022-10-16T11:18:18.507Z,25.20
2022-10-16T11:20:59.174Z,25.00
2022-10-16T11:23:34.429Z,24.80
2022-10-16T11:26:07.966Z,24.70
2022-10-16T11:28:42.917Z,24.60
2022-10-16T11:31:19.485Z,24.60
2022-10-16T11:34:40.384Z,24.60
2022-10-16T11:37:22.126Z,24.70
2022-10-16T11:39:52.003Z,24.80
2022-10-16T11:42:39.368Z,24.80
2022-10-16T11:45:28.260Z,24.70
2022-10-16T11:48:46.079Z,24.70
2022-10-16T11:51:37.045Z,24.70
2022-10-16T11:54:27.890Z,24.70
2022-10-16T11:57:02.642Z,24.70
2022-10-16T12:00:09.025Z,24.80
2022-10-16T12:02:57.660Z,24.80
2022-10-16T12:05:42.531Z,24.90
2022-10-16T12:08:14.600Z,24.90
2022-10-16T12:10:45.966Z,24.90
2022-10-16T12:13:37.143Z,25.00
2022-10-16T12:16:14.128Z,25.00
2022-10-16T12:18:50.225Z,25.00
2022-10-16T12:21:22.817Z,25.00
2022-10-16T12:23:53.817Z,25.00
2022-10-16T12:26:38.382Z,25.00
2022-10-16T12:29:41.550Z,25.00
2022-10-16T12:32:46.120Z,25.00
2022-10-16T12:35:25.916Z,25.00
2022-10-16T12:37:54.045Z,24.90
2022-10-16T12:40:34.744Z,24.80
2022-10-16T12:43:24.912Z,24.80
2022-10-16T12:46:11.555Z,24.90
2022-10-16T12:48:48.747Z,25.00
2022-10-16T12:51:30.449Z,25.00
2022-10-16T12:54:14.457Z,25.10
2022-10-16T12:57:27.606Z,25.10
2022-10-16T13:00:27.818Z,25.10
2022-10-16T13:04:11.346Z,25.10
2022-10-16T13:07:00.332Z,25.10
2022-10-16T13:09:48.287Z,25.10
2022-10-16T13:12:58.851Z,25.10
2022-10-16T13:15:59.728Z,25.10
2022-10-16T13:18:39.720Z,25.10
2022-10-16T13:21:43.863Z,25.10
2022-10-16T13:24:50.126Z,25.10
2022-10-16T13:27:41.402Z,25.10
2022-10-16T13:30:26.882Z,25.10
2022-10-16T13:33:32.346Z,25.10
2022-10-16T13:36:00.386Z,25.10
2022-10-16T13:38:33.297Z,25.10
2022-10-16T13:41:07.858Z,25.10
2022-10-16T13:43:53.952Z,25.10
2022-10-16T13:46:24.717Z,25.00
2022-10-16T13:49:04.353Z,25.00
2022-10-16T13:51:34.160Z,25.00
2022-10-16T13:54:01.689Z,25.00
2022-10-16T13:56:32.709Z,25.00
2022-10-16T13:59:06.538Z,25.00
2022-10-16T14:01:45.754Z,24.90
2022-10-16T14:04:15.003Z,25.00
2022-10-16T14:06:48.270Z,25.00
2022-10-16T14:09:27.832Z,24.90
2022-10-16T14:12:01.643Z,25.00
2022-10-16T14:14:43.714Z,25.00
2022-10-16T14:17:31.553Z,24.90
2022-10-16T14:20:05.512Z,25.00
2022-10-16T14:22:42.986Z,25.00
2022-10-16T14:25:25.046Z,25.00
2022-10-16T14:28:23.369Z,25.00
2022-10-16T14:31:00.412Z,25.00
2022-10-16T14:33:31.042Z,25.00
2022-10-16T14:36:15.365Z,25.00
2022-10-16T14:39:09.680Z,25.00
2022-10-16T14:41:47.315Z,25.00
2022-10-16T14:44:15.861Z,25.00
2022-10-16T14:46:45.619Z,24.90
2022-10-16T14:49:13.083Z,25.00
2022-10-16T14:51:46.958Z,25.00
2022-10-16T14:54:19.646Z,24.90
2022-10-16T14:56:56.101Z,24.90
2022-10-16T14:59:32.005Z,24.90
2022-10-16T15:01:59.953Z,24.90
2022-10-16T15:04:27.532Z,24.90
2022-10-16T15:06:55.045Z,24.90
2022-10-16T15:09:22.424Z,24.90
2022-10-16T15:11:50.308Z,24.80
2022-10-16T15:14:17.929Z,24.90
2022-10-16T15:16:45.474Z,24.80
2022-10-16T15:19:13.258Z,24.90
2022-10-16T15:21:40.646Z,24.90
2022-10-16T15:24:16.597Z,24.80
2022-10-16T15:26:50.570Z,24.80
2022-10-16T15:29:18.143Z,24.80
2022-10-16T15:31:48.614Z,24.80
2022-10-16T15:34:16.206Z,24.80
2022-10-16T15:36:43.745Z,24.80
2022-10-16T15:39:22.143Z,24.80
2022-10-16T15:41:54.468Z,24.80
2022-10-16T15:44:27.345Z,24.80
2022-10-16T15:46:56.567Z,24.80
2022-10-16T15:49:24.210Z,24.80
2022-10-16T15:51:54.004Z,24.80
2022-10-16T15:54:23.927Z,24.80
2022-10-16T15:56:51.554Z,24.80
2022-10-16T15:59:21.926Z,24.80
2022-10-16T16:01:49.645Z,24.80
2022-10-16T16:04:42.189Z,24.80
2022-10-16T16:07:08.368Z,24.80
2022-10-16T16:09:35.800Z,24.80
2022-10-16T16:12:03.534Z,24.80
2022-10-16T16:14:30.940Z,24.80
2022-10-16T16:16:59.481Z,24.70
2022-10-16T16:19:27.082Z,24.80
2022-10-16T16:21:54.573Z,24.80
2022-10-16T16:24:22.063Z,24.80
2022-10-16T16:26:49.642Z,24.80
2022-10-16T16:29:17.923Z,24.80
2022-10-16T16:31:47.228Z,24.80
2022-10-16T16:34:15.533Z,24.80
2022-10-16T16:36:43.739Z,24.80
2022-10-16T16:39:11.898Z,24.90
2022-10-16T16:41:39.440Z,25.00
2022-10-16T16:44:10.468Z,25.00
2022-10-16T16:46:38.246Z,25.10
2022-10-16T16:49:05.682Z,25.20
2022-10-16T16:51:37.015Z,25.40
2022-10-16T16:54:08.770Z,25.40
2022-10-16T16:56:36.666Z,25.50
2022-10-16T16:59:04.979Z,25.60
2022-10-16T17:01:32.654Z,25.60
2022-10-16T17:04:00.823Z,25.70
2022-10-16T17:06:33.022Z,25.70
2022-10-16T17:09:04.016Z,25.80
2022-10-16T17:11:31.812Z,25.90
2022-10-16T17:14:01.552Z,26.00
2022-10-16T17:16:36.087Z,26.10
2022-10-16T17:19:11.614Z,26.30
2022-10-16T17:21:39.300Z,26.30
2022-10-16T17:24:07.401Z,26.40
2022-10-16T17:26:38.479Z,26.40
2022-10-16T17:29:06.305Z,26.50
2022-10-16T17:31:36.665Z,26.50
2022-10-16T17:34:07.481Z,26.50
2022-10-16T17:36:37.566Z,26.60
2022-10-16T17:39:08.717Z,26.60
2022-10-16T17:41:37.317Z,26.60
2022-10-16T17:44:10.549Z,26.70
2022-10-16T17:46:40.974Z,26.70
2022-10-16T17:49:09.933Z,26.70
2022-10-16T17:51:37.257Z,26.80
2022-10-16T17:54:05.103Z,26.80
2022-10-16T17:56:32.855Z,26.80
2022-10-16T17:59:03.275Z,26.90
2022-10-16T18:01:36.014Z,26.90
2022-10-16T18:04:12.524Z,27.00
2022-10-16T18:06:43.295Z,27.00
2022-10-16T18:09:15.250Z,27.00
2022-10-16T18:11:42.857Z,27.00
2022-10-16T18:14:15.909Z,27.00
2022-10-16T18:16:44.229Z,27.10
2022-10-16T18:19:12.471Z,27.10
2022-10-16T18:21:40.280Z,27.10
2022-10-16T18:24:07.814Z,27.10
2022-10-16T18:26:35.166Z,27.20
2022-10-16T18:29:03.355Z,27.20
2022-10-16T18:31:31.306Z,27.20
2022-10-16T18:33:59.143Z,27.30
2022-10-16T18:36:33.370Z,27.30
2022-10-16T18:39:07.680Z,27.30
2022-10-16T18:41:36.219Z,27.30
2022-10-16T18:44:03.858Z,27.40
2022-10-16T18:46:31.150Z,27.40
2022-10-16T18:49:00.636Z,27.50
2022-10-16T18:51:38.367Z,27.50
2022-10-16T18:54:11.678Z,27.50
2022-10-16T18:56:40.164Z,27.50
2022-10-16T18:59:09.299Z,27.50
2022-10-16T19:01:39.968Z,27.60
2022-10-16T19:04:11.601Z,27.60
2022-10-16T19:06:52.569Z,27.60
2022-10-16T19:09:23.196Z,27.60
2022-10-16T19:14:23.410Z,27.70
2022-10-16T19:16:50.653Z,27.70
2022-10-16T19:19:19.037Z,27.80
2022-10-16T19:21:48.464Z,27.80
2022-10-16T19:24:17.346Z,27.90
2022-10-16T19:26:45.047Z,27.90
2022-10-16T19:29:12.857Z,27.90
2022-10-16T19:31:41.289Z,27.90
2022-10-16T19:34:10.660Z,27.90
2022-10-16T19:36:40.286Z,27.90
2022-10-16T19:39:14.815Z,27.90
2022-10-16T19:41:45.077Z,27.90
2022-10-16T19:44:15.731Z,27.90
2022-10-16T19:46:44.100Z,27.90
2022-10-16T19:49:15.216Z,27.90
2022-10-16T19:51:42.803Z,27.90
2022-10-16T19:54:13.704Z,27.90
2022-10-16T19:56:42.919Z,27.90
2022-10-16T19:59:16.544Z,27.90
2022-10-16T20:01:44.451Z,27.90
2022-10-16T20:04:13.368Z,27.90
2022-10-16T20:06:40.993Z,27.90
2022-10-16T20:09:09.365Z,27.90
2022-10-16T20:11:37.159Z,27.90
2022-10-16T20:14:05.309Z,27.80
2022-10-16T20:16:33.006Z,27.80
2022-10-16T20:19:01.528Z,27.80
2022-10-16T20:21:33.176Z,27.80
2022-10-16T20:24:05.282Z,27.80
2022-10-16T20:26:33.871Z,27.80
2022-10-16T20:29:02.398Z,27.80
2022-10-16T20:31:31.848Z,27.80
2022-10-16T20:34:07.710Z,27.80
2022-10-16T20:36:36.952Z,27.80
2022-10-16T20:39:07.034Z,27.90
2022-10-16T20:41:38.020Z,27.90
2022-10-16T20:44:06.099Z,27.90
2022-10-16T20:46:34.026Z,28.00
2022-10-16T20:49:10.751Z,27.90
2022-10-16T20:51:39.580Z,27.90
2022-10-16T20:54:08.046Z,28.00
2022-10-16T20:56:37.628Z,28.00
2022-10-16T20:59:06.273Z,28.00
2022-10-16T21:01:35.850Z,28.10
2022-10-16T21:04:08.029Z,28.10
2022-10-16T21:06:38.520Z,28.10
2022-10-16T21:09:07.131Z,28.10
2022-10-16T21:11:36.906Z,28.20
2022-10-16T21:14:07.413Z,28.20
2022-10-16T21:16:35.102Z,28.20
2022-10-16T21:19:03.298Z,28.30
2022-10-16T21:21:38.529Z,28.30
2022-10-16T21:24:10.804Z,28.40
2022-10-16T21:26:41.767Z,28.40
2022-10-16T21:29:12.468Z,28.40
2022-10-16T21:31:41.593Z,28.40
2022-10-16T21:34:09.997Z,28.40
2022-10-16T21:36:40.316Z,28.50
2022-10-16T21:39:20.011Z,28.50
2022-10-16T21:41:51.033Z,28.50
2022-10-16T21:44:45.271Z,28.40
2022-10-16T21:47:12.931Z,28.40
2022-10-16T21:49:41.125Z,28.40
2022-10-16T21:52:08.988Z,28.40
2022-10-16T21:54:37.849Z,28.40
2022-10-16T21:57:06.509Z,28.40
2022-10-16T21:59:34.328Z,28.40
2022-10-16T22:02:03.665Z,28.40
2022-10-16T22:04:31.918Z,28.30
2022-10-16T22:06:59.790Z,28.30
2022-10-16T22:09:28.908Z,28.30
2022-10-16T22:11:56.855Z,28.30
2022-10-16T22:14:25.836Z,28.20
2022-10-16T22:16:54.658Z,28.30
2022-10-16T22:19:23.410Z,28.20
2022-10-16T22:21:57.444Z,28.20
2022-10-16T22:24:25.626Z,28.20
2022-10-16T22:26:54.292Z,28.20
2022-10-16T22:29:22.999Z,28.20
2022-10-16T22:31:54.582Z,28.20
2022-10-16T22:34:22.956Z,28.10
2022-10-16T22:36:51.205Z,28.20
2022-10-16T22:39:19.948Z,28.10
2022-10-16T22:41:48.291Z,28.10
2022-10-16T22:44:16.939Z,28.10
2022-10-16T22:46:45.428Z,28.10
2022-10-16T22:49:12.967Z,28.10
2022-10-16T22:51:41.165Z,28.00
2022-10-16T22:54:09.062Z,28.00
2022-10-16T22:56:37.165Z,28.00
2022-10-16T22:59:06.317Z,28.00
2022-10-16T23:01:42.082Z,28.00
2022-10-16T23:04:09.906Z,27.90
2022-10-16T23:06:37.442Z,27.90
2022-10-16T23:09:04.941Z,27.80
2022-10-16T23:11:32.584Z,27.80
2022-10-16T23:14:00.199Z,27.80
2022-10-16T23:16:27.675Z,27.80
2022-10-16T23:18:55.388Z,27.70
2022-10-16T23:21:25.970Z,27.70
2022-10-16T23:23:54.980Z,27.70
2022-10-16T23:26:26.571Z,27.70
2022-10-16T23:28:56.851Z,27.60
2022-10-16T23:31:25.383Z,27.60
2022-10-16T23:33:52.799Z,27.60
2022-10-16T23:36:22.290Z,27.60
2022-10-16T23:38:51.236Z,27.60
2022-10-16T23:41:20.457Z,27.60
2022-10-16T23:43:48.233Z,27.60
2022-10-16T23:46:16.429Z,27.60
2022-10-16T23:48:44.734Z,27.50
2022-10-16T23:51:12.437Z,27.50
2022-10-16T23:53:40.370Z,27.50
2022-10-16T23:56:08.968Z,27.50
2022-10-16T23:58:37.206Z,27.50
